Time;durP1;ratioP1;P1;durP2;ratioP2;P2;SDS_P1;SDS_P2;PMS_P1;PMS_P2;Temp;Humidity;BMP_temperature;BMP_pressure;BME280_temperature;BME280_humidity;BME280_pressure;Samples;Min_cycle;Max_cycle;Signal;HPM_P1;HPM_P2
2022/11/28 00:02:12;;;;;;;4.58;2.92;;;;;;;0.58;98.09;101514.22;1709745;84;21568;-68
2022/11/28 00:04:42;;;;;;;4.03;2.20;;;;;;;0.59;98.05;101513.73;1709554;84;21126;-70
2022/11/28 00:07:13;;;;;;;4.90;2.17;;;;;;;0.62;98.08;101512.17;1709750;84;21557;-67
2022/11/28 00:09:42;;;;;;;2.80;1.92;;;;;;;0.63;98.02;101521.98;1709588;84;21565;-68
2022/11/28 00:12:11;;;;;;;3.00;2.15;;;;;;;0.67;98.03;101523.53;1709521;84;21592;-67
2022/11/28 00:14:42;;;;;;;4.80;2.80;;;;;;;0.69;98.08;101516.20;1709589;84;21094;-67
2022/11/28 00:17:12;;;;;;;4.62;2.37;;;;;;;0.70;97.99;101517.92;1709627;84;21192;-68
2022/11/28 00:19:42;;;;;;;4.60;2.20;;;;;;;0.70;98.01;101529.20;1709546;84;21707;-68
2022/11/28 00:22:11;;;;;;;5.05;2.67;;;;;;;0.69;97.88;101522.08;1709525;84;21565;-68
2022/11/28 00:24:42;;;;;;;4.08;2.33;;;;;;;0.67;97.82;101525.37;1709769;84;21117;-67
2022/11/28 00:27:10;;;;;;;3.98;2.30;;;;;;;0.66;97.73;101520.95;1709584;84;21623;-68
2022/11/28 00:29:40;;;;;;;4.28;2.20;;;;;;;0.66;97.64;101524.50;1709834;84;21170;-68
2022/11/28 00:32:09;;;;;;;4.72;2.60;;;;;;;0.62;97.49;101531.05;1709816;84;21607;-68
2022/11/28 00:34:38;;;;;;;5.70;2.87;;;;;;;0.62;97.50;101529.70;1709816;84;21557;-68
2022/11/28 00:37:07;;;;;;;4.72;2.67;;;;;;;0.63;97.57;101530.94;1709582;84;21585;-68
2022/11/28 00:39:36;;;;;;;4.95;2.30;;;;;;;0.66;97.49;101537.98;1709589;83;21608;-68
2022/11/28 00:42:05;;;;;;;4.72;2.10;;;;;;;0.64;97.42;101534.50;1709576;84;21138;-68
2022/11/28 00:44:34;;;;;;;3.25;1.87;;;;;;;0.66;97.51;101541.17;1709771;84;21595;-68
2022/11/28 00:47:04;;;;;;;4.15;2.15;;;;;;;0.66;97.49;101538.48;1709615;84;21138;-68
2022/11/28 00:49:33;;;;;;;3.60;2.20;;;;;;;0.66;97.49;101527.20;1709588;84;21158;-68
2022/11/28 00:52:04;;;;;;;4.22;3.00;;;;;;;0.69;97.31;101532.88;1709727;83;21137;-68
2022/11/28 00:54:33;;;;;;;5.47;3.12;;;;;;;0.68;97.32;101526.61;1710387;83;21165;-67
2022/11/28 00:57:03;;;;;;;4.22;2.77;;;;;;;0.70;97.38;101526.50;1683170;85;21537;-68
2022/11/28 00:59:32;;;;;;;3.75;2.67;;;;;;;0.71;97.35;101530.92;1683516;84;21567;-68
2022/11/28 01:02:01;;;;;;;3.45;2.40;;;;;;;0.69;97.16;101532.38;1683382;85;21175;-69
2022/11/28 01:04:30;;;;;;;2.80;1.92;;;;;;;0.67;97.00;101523.53;1683541;85;21180;-68
2022/11/28 01:06:58;;;;;;;4.00;2.37;;;;;;;0.67;97.08;101532.11;1683217;84;21195;-69
2022/11/28 01:09:28;;;;;;;6.50;3.83;;;;;;;0.68;97.23;101525.27;1682986;84;21524;-68
2022/11/28 01:11:57;;;;;;;6.28;3.47;;;;;;;0.69;97.24;101533.73;1683493;84;21605;-68
2022/11/28 01:14:25;;;;;;;8.35;4.08;;;;;;;0.71;97.25;101519.66;1683206;84;21128;-68
2022/11/28 01:16:54;;;;;;;6.42;3.15;;;;;;;0.74;97.24;101520.79;1683470;85;21123;-67
2022/11/28 01:19:23;;;;;;;5.35;2.98;;;;;;;0.72;97.13;101536.70;1683392;84;21139;-68
2022/11/28 01:21:51;;;;;;;4.25;2.50;;;;;;;0.70;97.16;101531.41;1683256;84;21140;-68
2022/11/28 01:24:20;;;;;;;5.05;2.50;;;;;;;0.71;97.24;101531.80;1683473;85;21637;-69
2022/11/28 01:26:49;;;;;;;4.97;2.47;;;;;;;0.74;97.22;101532.06;1683060;85;21219;-69
2022/11/28 01:29:18;;;;;;;4.37;2.33;;;;;;;0.76;97.16;101536.86;1683237;85;21636;-68
2022/11/28 01:31:47;;;;;;;6.30;4.45;;;;;;;0.78;97.12;101529.53;1683360;84;21616;-68
2022/11/28 01:34:16;;;;;;;4.40;2.40;;;;;;;0.79;97.15;101531.26;1683114;85;21667;-67
2022/11/28 01:36:47;;;;;;;4.25;2.02;;;;;;;0.78;97.19;101527.70;1683353;85;21127;-68
2022/11/28 01:39:16;;;;;;;3.10;2.00;;;;;;;0.79;97.12;101529.42;1683084;85;21639;-67
2022/11/28 01:41:44;;;;;;;3.70;2.45;;;;;;;0.80;97.10;101531.64;1683682;85;21167;-68
2022/11/28 01:44:18;;;;;;;3.30;2.10;;;;;;;0.79;97.13;101529.42;1683508;84;21211;-68
2022/11/28 01:46:47;;;;;;;2.30;1.60;;;;;;;0.78;97.14;101530.88;1683271;84;21609;-68
2022/11/28 01:49:31;;;;;;;3.55;2.22;;;;;;;0.80;97.19;101543.28;1683058;84;21109;-68
2022/11/28 01:52:04;;;;;;;3.30;2.25;;;;;;;0.82;97.12;101537.30;1683113;85;21514;-68
2022/11/28 01:54:33;;;;;;;3.92;2.10;;;;;;;0.83;97.01;101534.12;1683553;85;21136;-67
2022/11/28 01:57:05;;;;;;;3.27;2.05;;;;;;;0.82;96.94;101537.78;1727883;81;21607;-68
2022/11/28 01:59:38;;;;;;;3.08;2.00;;;;;;;0.80;96.97;101533.84;1729470;83;21601;-67
2022/11/28 02:02:09;;;;;;;2.42;1.77;;;;;;;0.79;96.95;101544.26;1729500;83;21205;-68
2022/11/28 02:04:38;;;;;;;3.02;2.10;;;;;;;0.78;96.91;101531.74;1729289;83;21165;-68
2022/11/28 02:07:10;;;;;;;3.27;2.27;;;;;;;0.77;96.73;101534.06;1729254;83;21153;-68
2022/11/28 02:09:39;;;;;;;4.47;2.20;;;;;;;0.76;96.78;101540.91;1729297;83;21157;-68
2022/11/28 02:12:59;;;;;;;4.08;2.20;;;;;;;0.75;96.84;101536.48;1729475;83;21122;-68
2022/11/28 02:15:49;;;;;;;5.40;2.52;;;;;;;0.73;96.85;101540.64;1729425;83;21597;-68
2022/11/28 02:18:54;;;;;;;6.08;2.40;;;;;;;0.74;96.88;101539.67;1699168;82;21777;-67
2022/11/28 02:21:39;;;;;;;5.72;3.52;;;;;;;0.76;96.98;101537.73;1694172;83;21598;-68
2022/11/28 02:24:35;;;;;;;5.70;2.85;;;;;;;0.77;97.05;101535.89;1729439;83;21098;-69
2022/11/28 02:27:37;;;;;;;5.90;3.20;;;;;;;0.77;97.12;101538.59;1729343;83;21209;-68
2022/11/28 02:30:55;;;;;;;5.65;3.12;;;;;;;0.75;97.17;101542.75;1728854;82;21114;-68
2022/11/28 02:33:37;;;;;;;5.27;2.33;;;;;;;0.73;97.00;101539.78;1729530;83;21193;-68
2022/11/28 02:36:17;;;;;;;7.22;3.98;;;;;;;0.72;96.96;101546.14;1729231;83;21142;-68
2022/11/28 02:39:13;;;;;;;10.78;5.03;;;;;;;0.73;97.21;101539.30;1729254;83;21142;-68
2022/11/28 02:42:00;;;;;;;11.68;4.28;;;;;;;0.74;97.24;101549.11;1729410;83;21154;-69
2022/11/28 02:44:46;;;;;;;7.87;3.60;;;;;;;0.75;97.25;101544.58;1729414;83;21541;-68
2022/11/28 02:47:36;;;;;;;6.92;3.27;;;;;;;0.79;97.25;101557.75;1728715;83;21526;-70
2022/11/28 02:50:25;;;;;;;7.67;3.95;;;;;;;0.80;97.20;101555.43;1729300;83;21544;-68
2022/11/28 02:53:08;;;;;;;5.58;3.30;;;;;;;0.80;97.16;101552.73;1729248;83;21549;-67
2022/11/28 02:55:39;;;;;;;7.90;3.70;;;;;;;0.78;97.28;101551.97;1729386;82;21114;-69
2022/11/28 02:58:09;;;;;;;12.28;5.17;;;;;;;0.80;97.39;101544.64;1732127;83;21193;-67
2022/11/28 03:00:42;;;;;;;12.70;5.70;;;;;;;0.80;97.35;101551.38;1732275;83;21153;-68
2022/11/28 03:03:22;;;;;;;10.20;4.60;;;;;;;0.79;97.30;101552.35;1732503;82;21158;-68
2022/11/28 03:06:13;;;;;;;10.08;4.75;;;;;;;0.75;97.35;101556.23;1732281;83;21126;-68
2022/11/28 03:09:22;;;;;;;9.55;4.47;;;;;;;0.73;97.45;101553.27;1732215;83;21130;-69
2022/11/28 03:12:08;;;;;;;7.83;3.85;;;;;;;0.73;97.51;101554.61;1732158;83;21110;-69
2022/11/28 03:14:52;;;;;;;8.48;4.47;;;;;;;0.73;97.45;101553.27;1732267;83;21130;-67
2022/11/28 03:17:59;;;;;;;10.50;5.53;;;;;;;0.73;97.41;101558.17;1732372;83;21150;-69
2022/11/28 03:20:47;;;;;;;9.98;4.78;;;;;;;0.72;97.47;101559.63;1712974;83;21106;-68
2022/11/28 03:23:36;;;;;;;7.87;4.17;;;;;;;0.71;97.56;101565.51;1732336;83;21114;-68
2022/11/28 03:26:48;;;;;;;7.83;3.72;;;;;;;0.70;97.59;101569.66;1731518;83;21236;-68
2022/11/28 03:29:40;;;;;;;9.48;4.97;;;;;;;0.70;97.61;101567.83;1732072;83;21158;-67
2022/11/28 03:32:28;;;;;;;7.35;3.95;;;;;;;0.71;97.50;101572.25;1732555;83;21569;-67
2022/11/28 03:35:17;;;;;;;8.18;4.03;;;;;;;0.70;97.44;101574.57;1732178;83;21173;-68
2022/11/28 03:37:57;;;;;;;5.42;3.40;;;;;;;0.69;97.47;101582.28;1732385;82;21157;-67
2022/11/28 03:40:29;;;;;;;6.40;3.33;;;;;;;0.71;97.48;101582.17;1732348;83;21145;-68
2022/11/28 03:43:03;;;;;;;6.65;3.20;;;;;;;0.73;97.48;101583.80;1732280;83;21169;-68
2022/11/28 03:45:40;;;;;;;6.85;3.55;;;;;;;0.76;97.44;101583.59;1731937;83;21197;-68
2022/11/28 03:48:14;;;;;;;4.83;3.10;;;;;;;0.78;97.45;101578.95;1732219;83;21173;-68
2022/11/28 03:50:50;;;;;;;8.23;3.58;;;;;;;0.80;97.47;101581.06;1732337;83;21130;-67
2022/11/28 03:53:51;;;;;;;5.72;3.50;;;;;;;0.81;97.46;101584.62;1731230;83;21576;-66
2022/11/28 03:56:37;;;;;;;4.60;2.87;;;;;;;0.81;97.41;101589.53;1730286;83;21158;-68
2022/11/28 03:59:29;;;;;;;6.03;3.12;;;;;;;0.83;97.40;101593.47;1725983;83;21122;-68
2022/11/28 04:02:09;;;;;;;15.83;8.13;;;;;;;0.80;97.41;101587.80;1726118;83;21563;-68
2022/11/28 04:05:05;;;;;;;6.10;3.30;;;;;;;0.80;97.44;101582.89;1725906;83;21738;-68
2022/11/28 04:07:39;;;;;;;5.60;3.67;;;;;;;0.80;97.52;101594.55;1725955;83;21110;-68
2022/11/28 04:10:29;;;;;;;7.17;3.75;;;;;;;0.81;97.54;101594.92;1725863;83;21134;-68
2022/11/28 04:13:20;;;;;;;12.50;5.40;;;;;;;0.81;97.47;101596.27;1725919;83;21158;-68
2022/11/28 04:16:12;;;;;;;12.75;5.90;;;;;;;0.79;97.48;101599.56;1725925;83;21119;-67
2022/11/28 04:18:58;;;;;;;16.40;7.03;;;;;;;0.76;97.58;101597.08;1725256;83;21138;-69
2022/11/28 04:21:35;;;;;;;13.88;6.53;;;;;;;0.76;97.65;101598.91;1725862;83;21110;-68
2022/11/28 04:24:10;;;;;;;53.52;21.52;;;;;;;0.78;97.76;101603.72;1725955;83;21122;-68
2022/11/28 04:26:48;;;;;;;54.00;20.40;;;;;;;0.80;97.83;101601.29;1720059;83;21613;-68
2022/11/28 04:29:19;;;;;;;38.33;16.27;;;;;;;0.82;97.85;101595.79;1721326;83;21569;-67
2022/11/28 04:31:49;;;;;;;26.52;10.85;;;;;;;0.80;97.84;101595.89;1721464;82;21157;-67
2022/11/28 04:34:18;;;;;;;17.07;6.78;;;;;;;0.78;97.96;101600.53;1695499;83;21129;-68
2022/11/28 04:36:47;;;;;;;12.18;5.37;;;;;;;0.80;98.04;101593.20;1711097;84;21248;-67
2022/11/28 04:39:18;;;;;;;10.82;4.87;;;;;;;0.85;98.05;101599.63;1711315;82;21189;-69
2022/11/28 04:42:12;;;;;;;9.18;4.65;;;;;;;0.83;98.06;101594.34;1711418;84;21724;-67
2022/11/28 04:44:59;;;;;;;8.18;4.03;;;;;;;0.83;98.17;101599.73;1711374;84;21518;-67
2022/11/28 04:47:29;;;;;;;6.53;3.60;;;;;;;0.83;98.24;101603.78;1711772;84;21134;-68
2022/11/28 04:49:58;;;;;;;8.28;4.83;;;;;;;0.86;98.30;101600.87;1711606;84;21514;-68
2022/11/28 04:52:41;;;;;;;7.90;3.83;;;;;;;0.86;98.19;101602.70;1711531;84;21129;-69
2022/11/28 04:55:31;;;;;;;6.28;3.85;;;;;;;0.84;98.20;101603.30;1711511;84;21640;-68
2022/11/28 04:58:11;;;;;;;6.47;3.83;;;;;;;0.83;98.22;101605.61;1709914;83;21525;-69
2022/11/28 05:00:40;;;;;;;5.70;3.47;;;;;;;0.80;98.21;101605.34;1709591;84;21661;-68
2022/11/28 05:03:08;;;;;;;5.53;3.52;;;;;;;0.81;98.29;101607.55;1709842;84;21126;-68
2022/11/28 05:05:47;;;;;;;8.65;5.50;;;;;;;0.82;98.27;101607.45;1709548;84;21578;-69
2022/11/28 05:08:17;;;;;;;7.67;4.70;;;;;;;0.81;98.26;101611.59;1709867;84;21117;-69
2022/11/28 05:10:46;;;;;;;7.00;3.98;;;;;;;0.81;98.36;101612.46;1709461;84;21154;-68
2022/11/28 05:13:14;;;;;;;6.62;3.77;;;;;;;0.81;98.44;101615.16;1709617;84;21686;-67
2022/11/28 05:15:43;;;;;;;5.83;3.60;;;;;;;0.84;98.51;101620.83;1709747;84;21161;-68
2022/11/28 05:18:12;;;;;;;7.78;3.60;;;;;;;0.88;98.52;101621.00;1709831;84;21106;-68
2022/11/28 05:20:41;;;;;;;7.40;3.95;;;;;;;0.88;98.51;101622.34;1709553;84;21585;-68
2022/11/28 05:23:11;;;;;;;7.70;4.28;;;;;;;0.87;98.54;101621.48;1709584;84;21129;-69
2022/11/28 05:25:40;;;;;;;9.78;4.50;;;;;;;0.87;98.53;101627.36;1709734;84;21521;-68
2022/11/28 05:28:10;;;;;;;9.70;4.90;;;;;;;0.86;98.57;101621.10;1709533;84;21149;-69
2022/11/28 05:30:38;;;;;;;7.78;4.20;;;;;;;0.86;98.45;101617.06;1709798;84;21561;-68
2022/11/28 05:33:07;;;;;;;7.80;4.45;;;;;;;0.88;98.42;101625.91;1709546;84;21176;-69
2022/11/28 05:35:39;;;;;;;6.47;4.05;;;;;;;0.89;98.42;101625.42;1709657;84;21533;-68
2022/11/28 05:38:07;;;;;;;6.90;3.92;;;;;;;0.86;98.26;101631.90;1709610;84;21161;-68
2022/11/28 05:40:43;;;;;;;10.55;5.47;;;;;;;0.84;98.31;101641.06;1709211;84;21127;-69
2022/11/28 05:43:11;;;;;;;21.42;8.55;;;;;;;0.84;98.37;101637.88;1709429;84;21553;-68
2022/11/28 05:45:41;;;;;;;18.87;8.38;;;;;;;0.86;98.36;101646.73;1709534;84;21201;-70
2022/11/28 05:48:10;;;;;;;24.43;10.25;;;;;;;0.89;98.33;101642.97;1709590;84;21145;-68
2022/11/28 05:50:40;;;;;;;17.05;8.15;;;;;;;0.89;98.33;101647.88;1709518;84;21174;-68
2022/11/28 05:53:10;;;;;;;15.35;6.60;;;;;;;0.87;98.39;101634.97;1709662;84;21569;-69
2022/11/28 05:55:39;;;;;;;13.65;6.25;;;;;;;0.87;98.45;101637.67;1709494;84;21145;-70
2022/11/28 05:58:08;;;;;;;7.05;4.15;;;;;;;0.90;98.51;101640.64;1709684;83;21513;-69
2022/11/28 06:00:37;;;;;;;18.32;9.43;;;;;;;0.91;98.50;101647.28;1709746;84;21208;-68
2022/11/28 06:03:06;;;;;;;8.75;4.90;;;;;;;0.92;98.55;101650.36;1709552;84;21627;-68
2022/11/28 06:05:40;;;;;;;8.65;5.17;;;;;;;0.89;98.63;101655.97;1709744;84;21133;-69
2022/11/28 06:08:11;;;;;;;13.55;6.78;;;;;;;0.88;98.60;101656.94;1709652;83;21611;-69
2022/11/28 06:10:40;;;;;;;12.18;5.65;;;;;;;0.86;98.61;101661.58;1709492;84;21564;-69
2022/11/28 06:13:08;;;;;;;8.45;4.90;;;;;;;0.88;98.64;101669.08;1709584;84;21126;-69
2022/11/28 06:15:41;;;;;;;10.23;5.40;;;;;;;0.90;98.74;101667.63;1709640;84;21138;-68
2022/11/28 06:18:12;;;;;;;9.13;5.00;;;;;;;0.91;98.83;101673.41;1710743;84;21198;-69
2022/11/28 06:20:40;;;;;;;11.73;4.60;;;;;;;0.90;98.83;101672.54;1709763;84;21587;-70
2022/11/28 06:23:09;;;;;;;12.47;5.40;;;;;;;0.91;98.83;101675.62;1709402;84;21130;-69
2022/11/28 06:25:39;;;;;;;10.38;6.00;;;;;;;0.91;98.69;101674.75;1709515;84;21177;-70
2022/11/28 06:28:08;;;;;;;8.80;5.40;;;;;;;0.91;98.77;101674.75;1709453;84;21126;-69
2022/11/28 06:30:36;;;;;;;11.00;4.80;;;;;;;0.92;98.87;101667.03;1709487;84;21157;-69
2022/11/28 06:33:06;;;;;;;7.87;4.65;;;;;;;0.92;98.91;101672.44;1709708;84;21173;-69
2022/11/28 06:35:34;;;;;;;9.10;4.97;;;;;;;0.94;98.93;101684.85;1709526;84;21165;-69
2022/11/28 06:38:03;;;;;;;9.48;4.72;;;;;;;0.98;98.94;101678.77;1709785;84;21138;-69
2022/11/28 06:40:34;;;;;;;7.70;4.75;;;;;;;0.99;98.96;101680.98;1709587;84;21129;-69
2022/11/28 06:43:02;;;;;;;9.13;5.12;;;;;;;0.97;98.94;101680.22;1709607;84;21168;-69
2022/11/28 06:45:33;;;;;;;9.25;4.67;;;;;;;0.97;98.96;101669.42;1709622;83;21729;-69
2022/11/28 06:48:03;;;;;;;8.48;5.25;;;;;;;0.97;98.97;101675.69;1709541;84;21577;-69
2022/11/28 06:50:32;;;;;;;10.93;4.70;;;;;;;0.98;98.95;101673.36;1709617;84;21189;-69
2022/11/28 06:53:01;;;;;;;12.43;7.75;;;;;;;1.00;98.92;101668.72;1709407;84;21107;-69
2022/11/28 06:55:30;;;;;;;10.53;5.53;;;;;;;1.02;98.89;101674.88;1709393;84;21545;-70
2022/11/28 06:57:58;;;;;;;8.75;4.80;;;;;;;1.04;98.93;101678.83;1715005;83;21146;-69
2022/11/28 07:00:27;;;;;;;6.90;3.75;;;;;;;1.06;98.94;101675.05;1719706;83;21139;-69
2022/11/28 07:02:57;;;;;;;8.40;4.55;;;;;;;1.06;98.88;101675.05;1719662;83;21602;-69
2022/11/28 07:05:29;;;;;;;8.58;4.83;;;;;;;1.08;98.87;101675.81;1719942;83;21174;-69
2022/11/28 07:07:58;;;;;;;8.03;4.45;;;;;;;1.10;98.76;101679.27;1719956;83;21170;-69
2022/11/28 07:10:27;;;;;;;8.00;4.30;;;;;;;1.09;98.59;101674.84;1720136;83;21154;-69
2022/11/28 07:12:58;;;;;;;77.27;34.10;;;;;;;1.06;98.53;101672.84;1720108;83;21244;-70
2022/11/28 07:15:30;;;;;;;13.28;6.50;;;;;;;1.06;98.54;101674.19;1719683;83;21213;-69
2022/11/28 07:18:00;;;;;;;13.70;4.97;;;;;;;1.09;98.54;101673.48;1720088;83;21522;-68
2022/11/28 07:20:29;;;;;;;9.10;4.97;;;;;;;1.10;98.50;101670.30;1719764;83;21127;-68
2022/11/28 07:23:00;;;;;;;10.13;5.50;;;;;;;1.12;98.32;101658.92;1719779;83;21728;-69
2022/11/28 07:25:28;;;;;;;9.33;5.40;;;;;;;1.12;98.21;101663.83;1719961;83;21173;-68
2022/11/28 07:27:59;;;;;;;10.90;6.12;;;;;;;1.12;98.18;101671.93;1719957;83;21611;-70
2022/11/28 07:30:27;;;;;;;9.95;5.67;;;;;;;1.12;98.11;101677.33;1719966;83;21665;-70
2022/11/28 07:32:56;;;;;;;12.33;5.85;;;;;;;1.13;98.12;101676.84;1719548;83;21178;-68
2022/11/28 07:35:26;;;;;;;18.07;7.87;;;;;;;1.15;98.15;101666.31;1719933;83;21110;-69
2022/11/28 07:37:55;;;;;;;14.10;7.90;;;;;;;1.18;98.17;101666.11;1719957;83;21158;-69
2022/11/28 07:40:24;;;;;;;18.57;9.60;;;;;;;1.19;98.04;101665.62;1720280;83;21111;-70
2022/11/28 07:42:52;;;;;;;20.70;10.05;;;;;;;1.21;98.05;101670.43;1719840;83;21124;-69
2022/11/28 07:45:21;;;;;;;12.20;6.95;;;;;;;1.21;98.04;101665.03;1719961;83;21105;-69
2022/11/28 07:47:51;;;;;;;11.38;7.10;;;;;;;1.21;97.93;101665.03;1720191;83;21567;-70
2022/11/28 07:50:20;;;;;;;12.28;6.37;;;;;;;1.19;97.81;101675.07;1720204;83;21178;-72
2022/11/28 07:52:50;;;;;;;13.58;7.03;;;;;;;1.20;97.81;101682.20;1720209;83;21181;-68
2022/11/28 07:55:20;;;;;;;14.43;7.53;;;;;;;1.17;97.65;101682.41;1720412;83;21154;-69
2022/11/28 07:57:48;;;;;;;10.82;6.80;;;;;;;1.14;97.54;101685.32;1719939;82;21174;-68
2022/11/28 08:00:19;;;;;;;17.70;7.85;;;;;;;1.12;97.51;101693.52;1720130;83;21178;-69
2022/11/28 08:02:48;;;;;;;12.40;6.67;;;;;;;1.14;97.50;101700.16;1719932;83;21662;-69
2022/11/28 08:05:18;;;;;;;15.50;7.97;;;;;;;1.15;97.56;101694.66;1699625;83;21173;-68
2022/11/28 08:07:49;;;;;;;13.40;7.80;;;;;;;1.18;97.57;101697.64;1730035;83;21185;-69
2022/11/28 08:10:18;;;;;;;18.48;8.60;;;;;;;1.19;97.58;101695.31;1729700;83;21189;-69
2022/11/28 08:12:49;;;;;;;19.67;8.85;;;;;;;1.21;97.59;101698.77;1729716;82;21154;-69
2022/11/28 08:15:18;;;;;;;21.82;10.75;;;;;;;1.20;97.45;101701.09;1730022;83;21177;-69
2022/11/28 08:17:47;;;;;;;19.25;10.32;;;;;;;1.18;97.35;101696.28;1729980;83;21178;-69
2022/11/28 08:20:17;;;;;;;19.70;9.88;;;;;;;1.19;97.36;101699.36;1729754;83;21138;-68
2022/11/28 08:22:46;;;;;;;18.02;9.48;;;;;;;1.18;97.16;101697.64;1729762;83;21435;-68
2022/11/28 08:25:15;;;;;;;17.92;9.60;;;;;;;1.15;96.97;101693.80;1730039;83;21102;-68
2022/11/28 08:27:44;;;;;;;22.45;11.08;;;;;;;1.13;96.99;101692.55;1729710;83;22020;-68
2022/11/28 08:30:13;;;;;;;25.80;11.22;;;;;;;1.12;96.96;101697.57;1729919;83;21158;-68
2022/11/28 08:32:42;;;;;;;22.40;10.85;;;;;;;1.11;96.99;101685.53;1729830;83;21158;-70
2022/11/28 08:35:12;;;;;;;26.05;12.20;;;;;;;1.14;97.08;101683.97;1729935;83;21615;-68
2022/11/28 08:37:41;;;;;;;21.73;11.15;;;;;;;1.13;96.86;101686.29;1729970;83;21213;-67
2022/11/28 08:40:11;;;;;;;24.37;11.30;;;;;;;1.13;96.72;101693.03;1730154;83;21185;-68
2022/11/28 08:42:41;;;;;;;25.15;10.58;;;;;;;1.12;96.53;101691.31;1729913;83;21098;-67
2022/11/28 08:45:10;;;;;;;20.52;10.50;;;;;;;1.11;96.42;101693.14;1730030;83;21601;-69
2022/11/28 08:47:39;;;;;;;24.00;11.43;;;;;;;1.11;96.42;101689.58;1729815;83;21154;-69
2022/11/28 08:50:08;;;;;;;25.02;11.78;;;;;;;1.11;96.49;101685.05;1729725;83;21166;-66
2022/11/28 08:52:37;;;;;;;27.17;12.23;;;;;;;1.13;96.47;101688.50;1729984;83;21173;-69
2022/11/28 08:55:07;;;;;;;26.55;12.70;;;;;;;1.16;96.63;101688.30;1730057;83;21126;-69
2022/11/28 08:57:36;;;;;;;30.72;12.75;;;;;;;1.20;96.55;101691.64;1729683;83;21592;-69
2022/11/28 09:00:06;;;;;;;31.80;13.72;;;;;;;1.22;96.65;101691.05;1730105;83;21518;-69
2022/11/28 09:02:35;;;;;;;33.25;12.80;;;;;;;1.25;96.66;101689.49;1730007;83;21165;-67
2022/11/28 09:05:05;;;;;;;34.18;14.90;;;;;;;1.27;96.49;101683.50;1729755;83;21175;-70
2022/11/28 09:07:34;;;;;;;35.15;13.80;;;;;;;1.31;96.52;101693.63;1729939;83;21585;-69
2022/11/28 09:10:04;;;;;;;33.13;14.30;;;;;;;1.33;96.47;101688.99;1730031;83;21158;-69
2022/11/28 09:12:33;;;;;;;32.93;14.40;;;;;;;1.33;96.31;101688.50;1729777;83;21547;-74
2022/11/28 09:15:02;;;;;;;34.27;15.23;;;;;;;1.33;96.16;101685.80;1727720;81;21194;-74
2022/11/28 09:17:31;;;;;;;34.83;16.42;;;;;;;1.33;96.18;101684.45;1724939;81;21164;-73
2022/11/28 09:20:00;;;;;;;36.17;14.63;;;;;;;1.37;96.27;101672.47;1759712;81;21213;-75
2022/11/28 09:22:30;;;;;;;56.85;15.85;;;;;;;1.39;96.16;101677.28;1759818;81;21762;-74
2022/11/28 09:24:58;;;;;;;60.30;17.05;;;;;;;1.39;96.03;101675.92;1759894;81;21153;-72
2022/11/28 09:27:27;;;;;;;47.20;16.97;;;;;;;1.41;96.25;101682.57;1753525;81;21154;-74
2022/11/28 09:29:56;;;;;;;34.58;14.95;;;;;;;1.43;96.39;101681.49;1747833;81;22169;-74
2022/11/28 09:32:25;;;;;;;40.30;15.60;;;;;;;1.44;96.38;101677.81;1738296;81;21576;-74
2022/11/28 09:34:55;;;;;;;44.00;16.25;;;;;;;1.48;96.51;101674.41;1724245;83;21156;-74
2022/11/28 09:37:26;;;;;;;42.70;16.65;;;;;;;1.53;96.55;101677.66;1723769;83;21211;-72
2022/11/28 09:39:55;;;;;;;34.85;15.78;;;;;;;1.53;96.46;101682.57;1701178;83;21183;-72
2022/11/28 09:42:40;;;;;;;36.63;16.60;;;;;;;1.53;96.34;101674.47;1720977;83;21164;-73
2022/11/28 09:45:17;;;;;;;36.42;17.45;;;;;;;1.55;96.36;101675.71;1702075;83;21175;-74
2022/11/28 09:47:51;;;;;;;42.62;17.45;;;;;;;1.57;96.30;101676.47;1723838;83;21162;-76
2022/11/28 09:50:32;;;;;;;48.92;18.10;;;;;;;1.58;96.27;101683.11;1723912;83;21219;-72
2022/11/28 09:53:39;;;;;;;36.05;17.50;;;;;;;1.62;96.35;101672.09;1724041;83;21267;-72
2022/11/28 09:56:14;;;;;;;37.23;17.95;;;;;;;1.62;96.29;101672.09;1669013;86;21235;-71
2022/11/28 09:58:48;;;;;;;41.10;18.10;;;;;;;1.60;96.23;101664.09;1659452;86;21248;-71
2022/11/28 10:01:44;;;;;;;40.65;17.90;;;;;;;1.56;96.17;101658.05;1681292;82;21191;-71
2022/11/28 10:04:24;;;;;;;49.50;20.50;;;;;;;1.53;96.17;101647.95;1708087;82;21152;-70
2022/11/28 10:07:16;;;;;;;42.00;19.17;;;;;;;1.54;96.37;101647.84;1708223;82;21140;-72
2022/11/28 10:10:09;;;;;;;46.73;17.73;;;;;;;1.52;96.22;101638.98;1708148;84;21179;-70
2022/11/28 10:13:06;;;;;;;41.30;18.07;;;;;;;1.50;96.33;101647.67;1708182;82;21137;-72
2022/11/28 10:16:17;;;;;;;36.58;15.63;;;;;;;1.50;96.53;101659.83;1703920;84;21195;-73
2022/11/28 10:18:53;;;;;;;50.73;18.25;;;;;;;1.49;96.62;101660.80;1708014;82;21579;-71
2022/11/28 10:21:40;;;;;;;42.60;17.30;;;;;;;1.50;96.59;101670.63;1707452;82;21179;-71
2022/11/28 10:24:20;;;;;;;46.95;17.55;;;;;;;1.49;96.64;101662.16;1679592;84;21195;-69
2022/11/28 10:26:52;;;;;;;41.25;17.98;;;;;;;1.49;96.68;101661.29;1707913;83;21195;-71
2022/11/28 10:29:42;;;;;;;40.00;17.02;;;;;;;1.48;96.59;101659.56;1707653;84;21190;-70
2022/11/28 10:32:17;;;;;;;44.70;17.07;;;;;;;1.46;96.61;101662.38;1707934;84;21203;-71
2022/11/28 10:35:13;;;;;;;40.00;17.87;;;;;;;1.48;96.66;101671.72;1707962;84;21148;-73
2022/11/28 10:37:46;;;;;;;39.03;16.57;;;;;;;1.50;96.72;101668.42;1707530;82;21210;-71
2022/11/28 10:40:26;;;;;;;30.30;14.10;;;;;;;1.53;96.83;101658.27;1706599;82;21163;-71
2022/11/28 10:43:02;;;;;;;19.07;10.55;;;;;;;1.53;96.67;101655.56;1707614;82;21171;-71
2022/11/28 10:45:49;;;;;;;18.40;9.45;;;;;;;1.53;96.67;101665.02;1707194;84;21803;-71
2022/11/28 10:48:35;;;;;;;21.07;11.12;;;;;;;1.55;96.44;101660.37;1707890;84;21548;-72
2022/11/28 10:51:27;;;;;;;18.85;11.85;;;;;;;1.57;96.36;101657.07;1707095;82;21124;-71
2022/11/28 10:54:17;;;;;;;22.10;12.13;;;;;;;1.57;96.16;101658.91;1708149;83;21527;-72
2022/11/28 10:56:55;;;;;;;22.37;12.30;;;;;;;1.60;96.24;101665.44;1702162;82;21599;-73
2022/11/28 10:59:58;;;;;;;25.17;12.23;;;;;;;1.63;96.28;101663.02;1707937;82;21665;-74
2022/11/28 11:02:53;;;;;;;19.48;11.28;;;;;;;1.65;96.11;101658.36;1708080;83;21170;-73
2022/11/28 11:05:28;;;;;;;19.25;11.70;;;;;;;1.65;95.94;101661.92;1707955;82;21215;-74
2022/11/28 16:42:55;;;;;;;13.55;7.42;;;;;;;1.36;100.00;101725.23;1830183;77;22560;-72
2022/11/28 16:45:28;;;;;;;15.75;7.78;;;;;;;1.31;100.00;101724.69;1788584;79;21087;-70
2022/11/28 16:48:16;;;;;;;15.93;8.08;;;;;;;1.33;100.00;101728.14;1769549;80;21079;-72
2022/11/28 16:51:16;;;;;;;15.85;8.18;;;;;;;1.37;100.00;101727.83;1788857;80;21154;-70
2022/11/28 16:53:51;;;;;;;14.43;7.30;;;;;;;1.41;100.00;101725.30;1772307;79;21095;-68
2022/11/28 16:56:35;;;;;;;15.20;8.10;;;;;;;1.41;100.00;101725.30;1788525;79;21177;-70
2022/11/28 16:59:13;;;;;;;14.53;7.45;;;;;;;1.42;100.00;101723.45;1788639;79;21103;-69
2022/11/28 17:01:47;;;;;;;16.62;8.40;;;;;;;1.44;100.00;101729.62;1788779;80;21138;-72
2022/11/28 17:04:28;;;;;;;17.42;8.53;;;;;;;1.44;100.00;101720.16;1788778;80;21107;-77
2022/11/28 17:07:03;;;;;;;17.32;8.33;;;;;;;1.44;100.00;101726.43;1769673;80;21389;-75
2022/11/28 17:09:32;;;;;;;20.50;10.23;;;;;;;1.47;100.00;101723.52;1788691;80;21099;-72
2022/11/28 17:12:09;;;;;;;18.40;8.78;;;;;;;1.50;100.00;101721.95;1788586;80;21110;-72
2022/11/28 17:14:42;;;;;;;18.25;9.55;;;;;;;1.52;100.00;101729.46;1788786;80;21149;-77
2022/11/28 17:17:14;;;;;;;22.25;10.05;;;;;;;1.52;100.00;101726.76;1788610;80;21083;-69
2022/11/28 17:19:44;;;;;;;23.00;9.83;;;;;;;1.54;100.00;101723.95;1788880;80;21127;-75
2022/11/28 17:22:19;;;;;;;23.85;10.00;;;;;;;1.54;100.00;101719.41;1788659;80;21162;-71
2022/11/28 17:24:49;;;;;;;29.07;12.55;;;;;;;1.55;100.00;101718.92;1788642;80;21174;-71
2022/11/28 17:27:18;;;;;;;26.97;11.78;;;;;;;1.56;100.00;101721.52;1788800;80;21181;-71
2022/11/28 17:29:54;;;;;;;22.45;9.65;;;;;;;1.58;100.00;101726.81;1788764;80;21134;-72
2022/11/28 17:32:23;;;;;;;30.45;11.03;;;;;;;1.57;100.00;101709.74;1788391;80;21087;-68
2022/11/28 17:34:53;;;;;;;30.55;11.35;;;;;;;1.58;100.00;101716.02;1744268;80;21722;-80
2022/11/28 17:37:23;;;;;;;23.57;9.98;;;;;;;1.58;100.00;101723.63;1788713;80;21111;-79
2022/11/28 17:42:40;;;;;;;27.37;11.00;;;;;;;1.63;100.00;101723.80;1788720;80;21079;-74